Time;durP1;ratioP1;P1;durP2;ratioP2;P2;SDS_P1;SDS_P2;PMS_P1;PMS_P2;Temp;Humidity;BMP_temperature;BMP_pressure;BME280_temperature;BME280_humidity;BME280_pressure;Samples;Min_cycle;Max_cycle;Signal;HPM_P1;HPM_P2
2021/08/16 00:02:08;;;;;;;6.22;3.80;;;21.50;76.80;;;;;;5067055;28;20029;-62
2021/08/16 00:04:34;;;;;;;9.18;3.55;;;21.50;76.70;;;;;;5071808;28;20532;-62
2021/08/16 00:07:00;;;;;;;10.65;4.60;;;21.50;76.80;;;;;;5059303;28;20037;-62
2021/08/16 00:09:26;;;;;;;5.65;3.70;;;21.50;76.60;;;;;;5058819;28;20606;-62
2021/08/16 00:11:51;;;;;;;8.02;4.00;;;21.50;76.60;;;;;;5037444;28;20136;-62
2021/08/16 00:14:17;;;;;;;6.70;4.43;;;21.50;76.60;;;;;;5053144;28;20033;-61
2021/08/16 00:16:42;;;;;;;6.55;3.60;;;21.40;76.50;;;;;;5055221;28;20091;-61
2021/08/16 00:19:08;;;;;;;6.68;3.80;;;21.50;76.70;;;;;;5053188;28;20049;-61
2021/08/16 00:21:33;;;;;;;6.00;3.72;;;21.40;76.50;;;;;;5055150;28;20043;-61
2021/08/16 00:23:59;;;;;;;7.45;3.95;;;21.40;76.70;;;;;;5064993;28;20090;-62
2021/08/16 00:26:25;;;;;;;5.68;3.50;;;21.40;76.60;;;;;;5070758;28;20115;-62
2021/08/16 00:28:50;;;;;;;5.53;3.75;;;21.40;76.70;;;;;;5053014;28;20112;-62
2021/08/16 00:31:16;;;;;;;6.43;4.15;;;21.40;76.90;;;;;;5056762;28;20111;-62
2021/08/16 00:33:41;;;;;;;7.30;4.10;;;21.30;77.00;;;;;;5072655;28;20028;-62
2021/08/16 00:36:07;;;;;;;8.50;4.05;;;21.30;76.90;;;;;;5058530;28;20052;-62
2021/08/16 00:38:33;;;;;;;5.70;3.72;;;21.30;76.80;;;;;;5072407;28;20029;-62
2021/08/16 00:40:58;;;;;;;6.13;4.05;;;21.30;76.80;;;;;;5058115;28;20037;-62
2021/08/16 00:43:24;;;;;;;5.45;3.67;;;21.30;77.00;;;;;;5071782;28;20017;-62
2021/08/16 00:45:51;;;;;;;5.80;3.92;;;21.30;77.10;;;;;;5071571;28;20035;-62
2021/08/16 00:48:16;;;;;;;5.78;3.70;;;21.30;77.00;;;;;;5061609;28;20029;-62
2021/08/16 00:50:42;;;;;;;7.10;4.15;;;21.30;77.70;;;;;;5064125;28;20055;-62
2021/08/16 00:53:07;;;;;;;9.40;4.40;;;21.30;77.20;;;;;;5062956;28;20040;-62
2021/08/16 00:55:34;;;;;;;6.72;3.70;;;21.20;77.20;;;;;;5060288;28;20120;-63
2021/08/16 00:58:01;;;;;;;6.20;3.60;;;21.20;77.30;;;;;;5070286;28;20165;-62
2021/08/16 01:00:27;;;;;;;7.38;4.35;;;21.20;77.20;;;;;;5070037;28;20035;-62
2021/08/16 01:02:53;;;;;;;8.25;3.70;;;21.20;77.20;;;;;;5070124;28;20389;-62
2021/08/16 01:05:19;;;;;;;6.35;3.70;;;21.20;77.30;;;;;;5061015;28;20049;-62
2021/08/16 01:07:47;;;;;;;7.65;3.70;;;21.20;77.30;;;;;;5056392;28;20032;-62
2021/08/16 01:10:15;;;;;;;9.00;4.13;;;21.20;77.40;;;;;;5057516;28;20020;-62
2021/08/16 01:12:40;;;;;;;6.15;3.45;;;21.20;77.50;;;;;;5070320;28;20076;-62
2021/08/16 01:15:08;;;;;;;4.75;3.33;;;21.20;77.40;;;;;;5070365;28;20051;-62
2021/08/16 01:17:34;;;;;;;5.53;3.63;;;21.20;77.40;;;;;;5070989;28;20033;-62
2021/08/16 01:20:00;;;;;;;8.80;3.45;;;21.10;77.40;;;;;;5059135;28;20025;-62
2021/08/16 01:22:26;;;;;;;5.35;3.50;;;21.10;77.40;;;;;;5065339;28;20032;-62
2021/08/16 01:24:52;;;;;;;5.55;3.40;;;21.20;77.50;;;;;;5060656;28;20036;-62
2021/08/16 01:27:17;;;;;;;6.03;3.25;;;21.10;77.40;;;;;;5062423;28;20465;-62
2021/08/16 01:29:43;;;;;;;5.43;3.40;;;21.10;77.30;;;;;;5053352;28;20120;-62
2021/08/16 01:32:09;;;;;;;7.72;3.90;;;21.10;77.50;;;;;;5061888;28;20121;-61
2021/08/16 01:34:34;;;;;;;5.93;3.92;;;21.10;77.70;;;;;;5070529;28;20082;-62
2021/08/16 01:37:01;;;;;;;5.60;3.40;;;21.10;77.70;;;;;;5067215;28;20094;-62
2021/08/16 01:39:27;;;;;;;6.38;3.90;;;21.10;77.70;;;;;;5053345;28;20044;-62
2021/08/16 01:41:53;;;;;;;5.47;3.70;;;21.00;77.70;;;;;;5055087;28;20020;-62
2021/08/16 01:44:22;;;;;;;6.05;3.90;;;21.00;77.80;;;;;;5051278;28;20414;-60
2021/08/16 01:46:48;;;;;;;5.82;3.60;;;21.00;77.80;;;;;;5060148;28;20067;-61
2021/08/16 01:49:13;;;;;;;5.40;3.47;;;21.00;78.00;;;;;;5051217;28;20039;-62
2021/08/16 01:51:39;;;;;;;5.35;3.45;;;21.00;77.90;;;;;;5066001;28;20123;-61
2021/08/16 01:54:10;;;;;;;6.25;3.53;;;21.00;78.10;;;;;;5064254;28;20056;-62
2021/08/16 01:56:37;;;;;;;5.53;3.38;;;21.00;78.20;;;;;;5066724;28;20020;-62
2021/08/16 01:59:04;;;;;;;7.22;4.20;;;21.00;78.30;;;;;;5068047;28;20070;-62
2021/08/16 02:01:29;;;;;;;5.95;3.25;;;20.90;78.30;;;;;;5064333;28;20040;-61
2021/08/16 02:03:55;;;;;;;6.82;3.67;;;20.90;78.30;;;;;;5069406;28;20545;-61
2021/08/16 02:06:21;;;;;;;5.85;3.45;;;20.90;78.40;;;;;;5051805;28;20095;-61
2021/08/16 02:08:47;;;;;;;5.82;3.35;;;20.90;78.40;;;;;;5050583;28;20380;-61
2021/08/16 02:11:12;;;;;;;6.93;3.92;;;20.80;78.50;;;;;;5067768;28;20111;-61
2021/08/16 02:13:38;;;;;;;7.70;3.65;;;20.80;78.60;;;;;;5071098;28;20056;-61
2021/08/16 02:16:04;;;;;;;7.53;4.05;;;20.80;78.50;;;;;;5064468;28;20401;-61
2021/08/16 02:18:30;;;;;;;7.57;3.13;;;20.80;78.70;;;;;;5069247;28;20384;-61
2021/08/16 02:20:56;;;;;;;6.15;3.55;;;20.70;78.60;;;;;;5068725;28;20119;-62
2021/08/16 02:23:22;;;;;;;4.97;3.20;;;20.70;78.60;;;;;;5070280;28;20056;-62
2021/08/16 02:25:48;;;;;;;5.35;3.42;;;20.70;78.70;;;;;;5060424;28;20028;-62
2021/08/16 02:28:16;;;;;;;5.70;3.22;;;20.70;78.70;;;;;;5050903;28;20025;-62
2021/08/16 02:30:43;;;;;;;6.05;3.55;;;20.70;78.70;;;;;;5058999;28;20033;-62
2021/08/16 02:33:09;;;;;;;5.55;3.22;;;20.70;78.90;;;;;;5050619;28;20396;-62
2021/08/16 02:35:34;;;;;;;5.47;3.22;;;20.70;78.70;;;;;;5060298;28;20024;-61
2021/08/16 02:38:00;;;;;;;4.97;3.28;;;20.70;78.70;;;;;;5071073;28;20503;-62
2021/08/16 02:40:25;;;;;;;6.53;3.22;;;20.60;78.70;;;;;;5063608;28;20043;-62
2021/08/16 02:42:51;;;;;;;4.75;3.40;;;20.60;78.90;;;;;;5052215;28;20032;-63
2021/08/16 02:45:16;;;;;;;9.85;4.35;;;20.60;78.90;;;;;;5071450;28;20532;-62
2021/08/16 02:47:43;;;;;;;6.35;3.17;;;20.60;79.00;;;;;;5070654;28;20030;-62
2021/08/16 02:50:09;;;;;;;5.30;3.13;;;20.60;79.00;;;;;;5070943;28;20750;-62
2021/08/16 02:52:35;;;;;;;9.40;3.65;;;20.60;79.00;;;;;;5054126;28;20044;-63
2021/08/16 02:55:02;;;;;;;4.60;3.13;;;20.60;79.20;;;;;;5060630;28;20033;-63
2021/08/16 02:57:27;;;;;;;6.22;3.25;;;20.60;79.20;;;;;;5073788;28;20111;-63
2021/08/16 02:59:53;;;;;;;5.60;3.45;;;20.60;79.20;;;;;;5059080;28;20099;-63
2021/08/16 03:02:18;;;;;;;6.45;3.38;;;20.60;79.10;;;;;;5067632;28;20395;-63
2021/08/16 03:04:44;;;;;;;7.15;3.42;;;20.60;79.10;;;;;;5062375;28;20599;-62
2021/08/16 03:07:09;;;;;;;4.75;2.97;;;20.60;79.20;;;;;;5059233;28;20040;-61
2021/08/16 03:09:35;;;;;;;8.35;3.70;;;20.60;79.20;;;;;;5056001;28;20033;-61
2021/08/16 03:12:00;;;;;;;4.95;3.17;;;20.60;79.10;;;;;;5073298;28;20028;-61
2021/08/16 03:14:26;;;;;;;4.90;3.50;;;20.60;79.30;;;;;;5054190;28;20024;-61
2021/08/16 03:16:52;;;;;;;6.68;3.25;;;20.50;79.30;;;;;;5071655;28;20333;-61
2021/08/16 03:19:18;;;;;;;6.07;3.25;;;20.60;79.50;;;;;;5045670;28;20020;-61
2021/08/16 03:21:43;;;;;;;5.90;3.38;;;20.60;79.50;;;;;;5061680;28;20119;-61
2021/08/16 03:24:09;;;;;;;8.68;3.55;;;20.60;79.50;;;;;;5054905;28;20019;-61
2021/08/16 03:26:34;;;;;;;6.70;3.53;;;20.50;79.60;;;;;;5066884;28;20028;-61
2021/08/16 03:29:00;;;;;;;6.25;3.33;;;20.60;79.60;;;;;;5053782;28;20021;-61
2021/08/16 03:31:26;;;;;;;5.35;3.92;;;20.50;79.50;;;;;;5069267;28;20028;-61
2021/08/16 03:33:53;;;;;;;5.55;3.40;;;20.60;79.60;;;;;;5073542;28;20036;-63
2021/08/16 03:36:18;;;;;;;7.90;3.53;;;20.60;79.70;;;;;;5058366;28;20496;-62
2021/08/16 03:38:44;;;;;;;6.13;3.55;;;20.60;79.50;;;;;;5035593;28;20040;-62
2021/08/16 03:41:09;;;;;;;5.20;3.50;;;20.60;79.60;;;;;;5054651;28;20089;-62
2021/08/16 03:43:35;;;;;;;5.03;3.05;;;20.60;79.50;;;;;;5053900;28;20485;-62
2021/08/16 03:46:00;;;;;;;5.47;3.97;;;20.50;79.60;;;;;;5049903;28;20024;-61
2021/08/16 03:48:26;;;;;;;8.02;3.20;;;20.60;79.60;;;;;;5063576;28;20093;-67
2021/08/16 03:50:51;;;;;;;6.60;3.33;;;20.60;79.70;;;;;;5067749;28;20511;-68
2021/08/16 03:53:17;;;;;;;4.82;3.60;;;20.60;79.70;;;;;;5073387;28;20029;-66
2021/08/16 03:55:42;;;;;;;6.72;3.72;;;20.60;79.70;;;;;;5068233;28;20111;-67
2021/08/16 03:58:08;;;;;;;4.95;3.17;;;20.60;79.70;;;;;;5060376;28;20025;-67
2021/08/16 04:00:34;;;;;;;6.32;3.70;;;20.60;79.70;;;;;;5056116;28;20104;-67
2021/08/16 04:03:00;;;;;;;6.68;3.47;;;20.60;79.60;;;;;;5068995;28;20120;-67
2021/08/16 04:05:26;;;;;;;8.32;3.10;;;20.60;79.60;;;;;;5069093;28;20027;-66
2021/08/16 04:07:51;;;;;;;5.18;3.25;;;20.60;79.50;;;;;;5072161;28;20104;-66
2021/08/16 04:10:17;;;;;;;5.25;3.28;;;20.60;79.60;;;;;;5070803;28;20373;-67
2021/08/16 04:12:44;;;;;;;8.40;3.50;;;20.70;79.50;;;;;;5072140;28;20032;-66
2021/08/16 04:15:19;;;;;;;5.10;3.30;;;20.70;79.60;;;;;;5064617;28;20017;-66
2021/08/16 04:17:44;;;;;;;9.35;4.30;;;20.70;79.70;;;;;;5065508;28;20401;-68
2021/08/16 04:20:11;;;;;;;6.32;3.45;;;20.80;79.80;;;;;;5072365;28;20024;-68
2021/08/16 04:22:37;;;;;;;5.55;3.15;;;20.80;79.60;;;;;;5062654;28;20413;-68
2021/08/16 04:25:14;;;;;;;4.15;2.95;;;20.90;79.60;;;;;;5066942;28;20071;-67
2021/08/16 04:27:40;;;;;;;5.85;3.53;;;20.90;79.70;;;;;;5060115;28;20626;-67
2021/08/16 04:30:06;;;;;;;6.95;3.15;;;21.00;79.50;;;;;;5071634;28;20115;-67
2021/08/16 04:32:32;;;;;;;7.88;3.65;;;21.00;79.70;;;;;;5071600;28;20037;-67
2021/08/16 04:34:57;;;;;;;7.65;4.25;;;21.10;79.60;;;;;;5070472;28;20027;-67
2021/08/16 04:37:23;;;;;;;8.52;3.10;;;21.10;79.60;;;;;;5055010;28;20040;-67
2021/08/16 04:39:49;;;;;;;7.80;3.83;;;21.10;79.10;;;;;;5055635;28;20040;-67
2021/08/16 04:42:14;;;;;;;4.93;3.33;;;21.20;78.90;;;;;;5065776;28;20083;-67
2021/08/16 04:44:40;;;;;;;7.47;3.70;;;21.20;78.70;;;;;;5061745;28;20032;-66
2021/08/16 04:47:05;;;;;;;6.88;3.75;;;21.20;78.50;;;;;;5056381;28;20074;-66
2021/08/16 04:49:31;;;;;;;5.75;3.33;;;21.30;78.40;;;;;;5068374;28;20078;-67
2021/08/16 04:51:56;;;;;;;7.72;3.42;;;21.30;78.40;;;;;;5068896;28;20040;-67
2021/08/16 04:54:22;;;;;;;6.63;4.10;;;21.30;78.30;;;;;;5066505;28;20423;-67
2021/08/16 04:56:47;;;;;;;9.63;3.80;;;21.30;78.20;;;;;;5051985;28;20120;-66
2021/08/16 04:59:12;;;;;;;8.32;3.60;;;21.30;78.10;;;;;;5051661;28;20359;-65
2021/08/16 05:01:38;;;;;;;6.18;3.72;;;21.40;78.30;;;;;;5068800;28;20025;-66
2021/08/16 05:04:05;;;;;;;5.72;3.80;;;21.30;78.10;;;;;;5057238;28;20075;-66
2021/08/16 05:06:32;;;;;;;5.95;3.75;;;21.30;78.20;;;;;;5039107;28;20086;-67
2021/08/16 05:08:59;;;;;;;9.38;3.40;;;21.30;78.10;;;;;;5048533;28;20035;-66
2021/08/16 05:11:25;;;;;;;5.72;3.28;;;21.30;78.10;;;;;;5059979;28;20582;-66
2021/08/16 05:13:52;;;;;;;11.00;3.60;;;21.30;78.30;;;;;;5043752;28;20477;-67
2021/08/16 05:16:19;;;;;;;8.05;3.97;;;21.30;78.20;;;;;;5050232;28;20489;-67
2021/08/16 05:18:45;;;;;;;7.80;3.90;;;21.30;78.30;;;;;;5037211;28;20044;-68
2021/08/16 05:21:10;;;;;;;6.35;3.38;;;21.40;78.40;;;;;;5042276;28;20029;-68
2021/08/16 05:23:36;;;;;;;6.70;3.50;;;21.30;78.20;;;;;;5048574;28;20024;-68
2021/08/16 05:26:01;;;;;;;4.97;3.00;;;21.30;78.10;;;;;;5038814;28;20067;-68
2021/08/16 05:28:28;;;;;;;5.50;3.28;;;21.30;78.10;;;;;;5035996;28;20025;-68
2021/08/16 05:30:54;;;;;;;7.88;3.78;;;21.40;78.10;;;;;;5027227;28;20482;-68
2021/08/16 05:33:20;;;;;;;6.30;2.70;;;21.40;78.20;;;;;;5033745;28;20088;-68
2021/08/16 05:35:45;;;;;;;7.10;3.80;;;21.40;78.20;;;;;;5042218;28;20119;-67
2021/08/16 05:38:10;;;;;;;7.20;3.75;;;21.40;78.30;;;;;;5040999;28;20140;-67
2021/08/16 05:40:36;;;;;;;6.47;3.00;;;21.50;78.20;;;;;;5035491;28;20025;-67
2021/08/16 05:43:01;;;;;;;5.07;3.35;;;21.40;78.10;;;;;;5038910;28;20052;-67
2021/08/16 05:45:27;;;;;;;5.45;3.55;;;21.50;78.10;;;;;;5050404;28;20029;-67
2021/08/16 05:47:52;;;;;;;6.95;3.38;;;21.50;78.20;;;;;;5049057;28;20025;-67
2021/08/16 05:50:18;;;;;;;6.80;3.53;;;21.50;78.20;;;;;;5048269;28;20091;-67
2021/08/16 05:52:43;;;;;;;5.18;3.47;;;21.60;78.30;;;;;;5033107;28;20037;-68
2021/08/16 05:55:09;;;;;;;6.15;3.05;;;21.60;78.30;;;;;;5024644;28;20049;-68
2021/08/16 05:57:35;;;;;;;7.50;3.65;;;21.70;78.20;;;;;;5031248;28;20397;-67
2021/08/16 06:00:00;;;;;;;5.43;3.25;;;21.70;78.40;;;;;;5034079;28;20165;-67
2021/08/16 06:02:26;;;;;;;5.70;3.60;;;21.80;78.10;;;;;;5033272;28;20025;-67
2021/08/16 06:04:51;;;;;;;5.75;3.17;;;21.90;78.20;;;;;;5044734;28;20021;-67
2021/08/16 06:07:18;;;;;;;6.18;3.30;;;22.00;78.40;;;;;;5047751;28;20381;-67
2021/08/16 06:09:44;;;;;;;4.63;3.08;;;22.10;77.90;;;;;;5036662;28;20024;-67
2021/08/16 06:12:09;;;;;;;6.75;3.60;;;22.20;78.40;;;;;;5049509;28;20037;-67
2021/08/16 06:14:36;;;;;;;5.53;2.58;;;22.30;77.90;;;;;;5032009;28;20034;-67
2021/08/16 06:17:02;;;;;;;6.22;3.20;;;22.30;77.90;;;;;;5038664;28;20044;-67
2021/08/16 06:19:27;;;;;;;5.47;3.17;;;22.40;77.70;;;;;;5031620;28;20108;-67
2021/08/16 06:21:52;;;;;;;6.75;3.40;;;22.50;77.50;;;;;;5054767;28;20438;-67
2021/08/16 06:24:18;;;;;;;7.85;3.65;;;22.60;77.20;;;;;;5051349;28;20091;-67
2021/08/16 06:26:43;;;;;;;6.63;3.10;;;22.60;77.20;;;;;;5051451;28;20033;-68
2021/08/16 06:29:09;;;;;;;6.78;3.15;;;22.70;77.00;;;;;;5043159;28;20032;-68
2021/08/16 06:31:35;;;;;;;7.07;3.15;;;22.90;76.70;;;;;;5046195;28;20030;-68
2021/08/16 06:34:00;;;;;;;6.00;2.95;;;22.90;76.30;;;;;;5053364;28;20056;-68
2021/08/16 06:36:26;;;;;;;5.47;3.03;;;22.90;76.40;;;;;;5039301;28;20045;-68
2021/08/16 06:38:52;;;;;;;4.93;3.08;;;23.00;76.10;;;;;;5040051;28;20511;-67
2021/08/16 06:41:18;;;;;;;5.93;2.30;;;23.00;75.80;;;;;;5036471;28;20026;-67
2021/08/16 06:43:46;;;;;;;4.40;2.90;;;23.00;75.50;;;;;;5042245;28;20456;-64
2021/08/16 06:46:13;;;;;;;5.85;2.80;;;23.10;75.50;;;;;;5049951;28;20413;-64
2021/08/16 06:48:38;;;;;;;7.95;3.45;;;23.10;75.30;;;;;;5049114;28;20034;-64
2021/08/16 06:51:04;;;;;;;6.40;3.58;;;23.20;75.70;;;;;;5046233;28;20052;-64
2021/08/16 06:53:29;;;;;;;7.18;3.28;;;23.20;75.70;;;;;;5047159;28;20044;-64
2021/08/16 06:55:55;;;;;;;7.05;3.05;;;23.20;75.80;;;;;;5047841;28;20033;-64
2021/08/16 06:58:20;;;;;;;4.30;2.88;;;23.30;75.30;;;;;;5049101;28;20025;-64
2021/08/16 07:00:47;;;;;;;7.72;3.25;;;23.30;75.00;;;;;;5038287;28;20540;-64
2021/08/16 07:03:12;;;;;;;8.50;3.15;;;23.30;75.50;;;;;;5033616;28;20536;-64
2021/08/16 07:05:43;;;;;;;5.05;2.58;;;23.30;75.40;;;;;;5044693;28;20033;-64
2021/08/16 07:08:08;;;;;;;6.10;3.00;;;23.40;75.60;;;;;;5035896;28;20100;-64
2021/08/16 07:10:34;;;;;;;6.18;3.53;;;23.40;75.30;;;;;;5033871;28;20120;-64
2021/08/16 07:12:59;;;;;;;5.70;3.10;;;23.50;75.50;;;;;;5040725;28;20040;-64
2021/08/16 07:15:25;;;;;;;5.80;3.38;;;23.60;75.50;;;;;;5045332;28;20035;-64
2021/08/16 07:17:50;;;;;;;5.28;3.05;;;23.60;75.40;;;;;;5046927;28;20112;-64
2021/08/16 07:20:16;;;;;;;5.20;2.95;;;23.60;75.50;;;;;;5045994;28;20316;-64
2021/08/16 07:22:42;;;;;;;5.72;3.20;;;23.70;75.40;;;;;;5040760;28;20033;-64
2021/08/16 07:25:08;;;;;;;8.00;3.13;;;23.80;75.50;;;;;;5043649;28;20389;-64
2021/08/16 07:27:33;;;;;;;7.88;3.03;;;23.80;75.60;;;;;;5047431;28;20025;-64
2021/08/16 07:29:59;;;;;;;5.30;3.30;;;23.80;75.50;;;;;;5044914;28;20025;-64
2021/08/16 07:32:24;;;;;;;7.55;2.97;;;23.80;75.50;;;;;;5039306;28;20084;-64
2021/08/16 07:34:50;;;;;;;5.10;2.78;;;23.80;75.70;;;;;;5039774;28;20021;-64
2021/08/16 07:37:15;;;;;;;6.32;3.20;;;23.80;75.90;;;;;;5033259;28;20036;-64
2021/08/16 07:39:41;;;;;;;11.15;3.45;;;23.90;76.20;;;;;;5040126;28;20060;-64
2021/08/16 07:42:07;;;;;;;5.10;2.80;;;23.90;76.10;;;;;;5018607;28;20064;-64
2021/08/16 07:44:33;;;;;;;5.07;2.63;;;24.00;75.90;;;;;;5041368;28;20025;-64
2021/08/16 07:46:59;;;;;;;5.10;3.00;;;23.90;75.30;;;;;;5045260;28;20052;-64
2021/08/16 07:49:30;;;;;;;6.53;3.20;;;24.00;75.10;;;;;;5035454;28;20108;-64
2021/08/16 07:51:56;;;;;;;4.80;2.92;;;24.00;75.00;;;;;;5046979;28;20040;-64
2021/08/16 07:54:22;;;;;;;5.22;2.95;;;24.00;75.10;;;;;;5044256;28;20131;-64
2021/08/16 07:56:50;;;;;;;9.20;3.55;;;24.00;75.20;;;;;;5043691;28;20055;-64
2021/08/16 07:59:18;;;;;;;5.55;2.63;;;24.00;75.20;;;;;;5036727;28;20080;-63
2021/08/16 08:01:45;;;;;;;5.18;3.08;;;23.90;75.10;;;;;;5042270;28;20029;-63
2021/08/16 08:04:10;;;;;;;5.35;2.80;;;23.80;75.40;;;;;;5041845;28;20067;-64
2021/08/16 08:06:36;;;;;;;5.55;3.17;;;23.80;75.80;;;;;;5040004;28;20057;-63
2021/08/16 08:09:02;;;;;;;7.13;3.20;;;23.80;76.00;;;;;;5037047;28;20040;-63
2021/08/16 08:11:28;;;;;;;6.25;3.30;;;23.80;75.90;;;;;;5034560;28;20024;-63
2021/08/16 08:13:53;;;;;;;8.35;4.15;;;23.70;75.90;;;;;;5047572;28;20029;-63
2021/08/16 08:16:19;;;;;;;7.25;3.63;;;23.70;76.10;;;;;;5045819;28;20511;-63
2021/08/16 08:18:44;;;;;;;5.25;3.50;;;23.70;76.40;;;;;;5045405;28;20071;-63
2021/08/16 08:21:10;;;;;;;5.43;3.10;;;23.80;76.10;;;;;;5045951;28;20076;-62
2021/08/16 08:23:36;;;;;;;8.23;3.65;;;23.80;75.60;;;;;;5038171;28;20398;-63
2021/08/16 08:26:02;;;;;;;9.20;3.90;;;23.80;75.30;;;;;;5039265;28;20032;-63
2021/08/16 08:28:27;;;;;;;6.82;4.00;;;23.90;75.30;;;;;;5038015;28;20026;-63
2021/08/16 08:30:53;;;;;;;6.15;4.50;;;23.90;74.80;;;;;;5038763;28;20180;-63
2021/08/16 08:33:18;;;;;;;8.55;4.05;;;23.90;74.40;;;;;;5040082;28;20771;-64
2021/08/16 08:35:48;;;;;;;6.13;3.90;;;23.90;74.00;;;;;;5047114;28;20074;-64
2021/08/16 08:38:14;;;;;;;7.82;4.20;;;23.90;73.90;;;;;;5049231;28;20029;-63
2021/08/16 08:40:40;;;;;;;6.63;3.70;;;23.90;73.60;;;;;;5039976;28;20108;-62
2021/08/16 08:43:09;;;;;;;5.65;3.60;;;23.90;72.80;;;;;;5039839;28;20116;-63
2021/08/16 08:45:35;;;;;;;5.15;3.63;;;23.90;72.50;;;;;;5039786;28;20132;-63
2021/08/16 08:48:00;;;;;;;7.22;4.05;;;23.90;71.80;;;;;;5047875;28;20121;-63
2021/08/16 08:50:26;;;;;;;6.32;3.47;;;23.90;70.80;;;;;;5037544;28;20558;-63
2021/08/16 08:52:56;;;;;;;6.25;3.95;;;23.90;70.70;;;;;;5053479;28;20060;-64
2021/08/16 08:55:22;;;;;;;5.20;3.85;;;23.80;70.10;;;;;;5051778;28;20025;-64
2021/08/16 08:57:47;;;;;;;6.53;3.97;;;23.90;70.40;;;;;;5046647;28;20021;-64
2021/08/16 09:00:16;;;;;;;6.45;3.65;;;23.90;70.80;;;;;;5056132;28;20104;-64
2021/08/16 09:02:43;;;;;;;6.05;3.83;;;24.00;70.70;;;;;;5051446;28;20663;-64
2021/08/16 09:05:09;;;;;;;4.95;3.72;;;24.10;70.80;;;;;;5045265;28;20086;-64
2021/08/16 09:07:37;;;;;;;7.68;3.58;;;24.20;70.50;;;;;;5051568;28;20040;-64
2021/08/16 09:10:05;;;;;;;6.70;3.50;;;24.20;70.50;;;;;;5051942;28;20142;-63
2021/08/16 09:12:33;;;;;;;5.55;3.10;;;24.30;69.20;;;;;;5051442;28;20033;-64
2021/08/16 09:14:58;;;;;;;7.53;3.70;;;24.30;68.80;;;;;;5050925;28;20021;-64
2021/08/16 09:17:32;;;;;;;4.50;3.55;;;24.30;68.10;;;;;;5047524;28;20091;-64
2021/08/16 09:19:59;;;;;;;5.72;3.42;;;24.30;68.00;;;;;;5051525;28;20395;-63
2021/08/16 09:22:29;;;;;;;8.13;3.70;;;24.30;67.50;;;;;;5043151;28;20068;-64
2021/08/16 09:25:04;;;;;;;6.50;3.50;;;24.30;67.00;;;;;;5037700;28;20021;-64
2021/08/16 09:27:30;;;;;;;7.85;3.50;;;24.40;67.00;;;;;;5051440;28;20124;-63
2021/08/16 09:29:56;;;;;;;9.82;3.97;;;24.50;67.40;;;;;;5049776;28;20055;-63
2021/08/16 09:32:34;;;;;;;8.15;3.58;;;24.50;67.30;;;;;;5046451;28;20041;-63
2021/08/16 09:35:08;;;;;;;5.55;3.13;;;24.70;66.90;;;;;;5051130;28;20017;-63
2021/08/16 09:37:35;;;;;;;5.75;3.35;;;24.80;66.60;;;;;;5031114;28;20034;-63
2021/08/16 09:40:12;;;;;;;5.60;3.10;;;24.90;66.30;;;;;;5030972;28;20033;-63
2021/08/16 09:42:46;;;;;;;6.88;3.10;;;24.90;65.50;;;;;;5032115;28;20437;-63
2021/08/16 09:45:25;;;;;;;4.53;2.55;;;24.90;65.50;;;;;;5031653;28;20035;-63
2021/08/16 09:47:56;;;;;;;6.10;3.55;;;24.90;65.20;;;;;;5034031;28;20365;-63
2021/08/16 09:50:21;;;;;;;7.43;3.13;;;24.90;65.00;;;;;;5040738;28;20512;-63
2021/08/16 09:52:48;;;;;;;7.55;3.85;;;24.90;64.50;;;;;;5042219;28;20049;-63
2021/08/16 09:55:13;;;;;;;6.40;3.40;;;24.90;64.70;;;;;;5034459;28;20037;-63
2021/08/16 09:57:40;;;;;;;6.07;3.53;;;24.90;64.80;;;;;;5030971;28;20386;-63
2021/08/16 10:00:06;;;;;;;4.05;2.80;;;24.90;65.10;;;;;;5039885;28;20380;-63
2021/08/16 10:02:32;;;;;;;5.60;3.13;;;25.00;64.80;;;;;;5013837;28;20033;-63
2021/08/16 10:04:58;;;;;;;6.85;3.10;;;25.00;64.60;;;;;;5021734;28;20033;-63
2021/08/16 10:07:30;;;;;;;4.05;2.97;;;25.10;64.00;;;;;;5048977;28;20389;-63
2021/08/16 10:09:59;;;;;;;5.55;3.45;;;25.10;64.10;;;;;;5041862;28;20423;-63
2021/08/16 10:12:28;;;;;;;9.70;3.20;;;25.20;63.10;;;;;;5047358;28;20447;-63
2021/08/16 10:14:54;;;;;;;5.55;3.00;;;25.20;62.80;;;;;;5047780;28;20021;-63
2021/08/16 10:17:32;;;;;;;4.60;2.63;;;25.30;62.60;;;;;;5039129;28;20391;-63
2021/08/16 10:19:59;;;;;;;5.05;2.60;;;25.30;62.50;;;;;;5044190;28;20041;-63
2021/08/16 10:22:25;;;;;;;6.55;3.95;;;25.30;61.70;;;;;;5040295;28;20585;-64
2021/08/16 10:24:50;;;;;;;4.38;2.83;;;25.40;61.20;;;;;;5054308;28;20112;-64
2021/08/16 10:27:16;;;;;;;5.50;2.55;;;25.40;61.50;;;;;;5043905;28;20112;-62
2021/08/16 10:29:42;;;;;;;6.63;2.58;;;25.50;61.40;;;;;;5050312;28;20024;-64
2021/08/16 10:32:18;;;;;;;5.38;3.13;;;25.50;60.30;;;;;;5024840;28;20583;-64
2021/08/16 10:34:44;;;;;;;4.55;2.90;;;25.50;59.60;;;;;;5040579;28;20420;-64
2021/08/16 10:37:11;;;;;;;4.78;3.05;;;25.60;59.20;;;;;;5049901;28;20062;-64
2021/08/16 10:39:45;;;;;;;6.93;3.38;;;25.70;59.10;;;;;;5044632;28;20505;-62
2021/08/16 10:42:16;;;;;;;3.33;2.20;;;25.70;58.60;;;;;;5045225;28;20533;-63
2021/08/16 10:44:49;;;;;;;4.78;2.65;;;25.70;58.50;;;;;;5045406;28;20041;-63
2021/08/16 10:47:29;;;;;;;4.15;2.45;;;25.60;58.00;;;;;;5049563;28;20539;-64
2021/08/16 10:50:19;;;;;;;5.25;3.00;;;25.50;57.90;;;;;;5050186;28;20132;-64
2021/08/16 10:52:45;;;;;;;4.35;2.63;;;25.40;57.90;;;;;;5045362;28;20425;-63
2021/08/16 10:55:24;;;;;;;3.53;2.58;;;25.40;57.60;;;;;;5049139;28;20028;-63
2021/08/16 10:57:51;;;;;;;6.50;2.28;;;25.40;57.90;;;;;;5036737;28;20163;-63
2021/08/16 11:00:17;;;;;;;4.47;2.53;;;25.40;58.30;;;;;;5046044;28;20029;-63
2021/08/16 11:02:43;;;;;;;8.27;2.47;;;25.40;57.90;;;;;;5011902;28;20026;-63
2021/08/16 11:05:12;;;;;;;4.90;3.25;;;25.40;58.00;;;;;;5031215;28;20025;-63
2021/08/16 11:07:39;;;;;;;3.63;2.33;;;25.50;58.00;;;;;;5046058;28;20477;-63
2021/08/16 11:10:07;;;;;;;5.65;2.80;;;25.50;57.40;;;;;;5053886;28;20029;-63
2021/08/16 11:12:35;;;;;;;5.53;2.85;;;25.60;57.40;;;;;;5043645;28;20041;-62
2021/08/16 11:15:01;;;;;;;5.03;2.65;;;25.80;57.80;;;;;;5035231;28;20017;-62
2021/08/16 11:17:29;;;;;;;4.22;2.63;;;25.80;57.30;;;;;;5051576;28;20030;-62
2021/08/16 11:19:58;;;;;;;6.00;2.55;;;25.80;56.60;;;;;;5034201;28;20035;-62
2021/08/16 11:22:24;;;;;;;3.88;2.50;;;25.80;56.70;;;;;;5034156;28;20025;-62
2021/08/16 11:24:49;;;;;;;5.80;2.80;;;25.80;56.70;;;;;;5034181;28;20099;-63
2021/08/16 11:27:21;;;;;;;5.47;2.45;;;25.80;57.30;;;;;;5031568;28;20037;-63
2021/08/16 11:29:58;;;;;;;4.38;2.20;;;25.80;57.50;;;;;;5034154;28;20037;-63
2021/08/16 11:32:25;;;;;;;6.03;3.15;;;25.90;57.30;;;;;;5015832;28;20034;-63
2021/08/16 11:34:55;;;;;;;4.43;2.60;;;25.90;56.70;;;;;;5037066;28;20125;-63
2021/08/16 11:37:48;;;;;;;3.70;2.15;;;26.00;56.50;;;;;;5039452;28;20067;-63
2021/08/16 11:40:15;;;;;;;4.82;2.80;;;26.00;56.70;;;;;;5052548;28;20043;-63
2021/08/16 11:42:41;;;;;;;5.32;2.28;;;26.00;56.90;;;;;;5048572;28;20048;-64
2021/08/16 11:45:09;;;;;;;4.97;2.70;;;25.90;56.80;;;;;;5053195;28;20070;-64
2021/08/16 11:47:37;;;;;;;3.85;2.15;;;25.90;56.20;;;;;;5047296;28;20116;-63
2021/08/16 11:50:12;;;;;;;3.38;2.17;;;25.90;56.30;;;;;;5038422;28;20045;-64
2021/08/16 11:52:41;;;;;;;4.18;2.22;;;25.90;56.20;;;;;;5037433;28;20083;-64
2021/08/16 11:55:08;;;;;;;3.85;2.63;;;25.90;55.80;;;;;;5035227;28;20025;-64
2021/08/16 11:57:34;;;;;;;7.03;2.58;;;26.00;55.90;;;;;;5051797;28;20029;-63
2021/08/16 12:00:01;;;;;;;5.32;2.45;;;26.10;55.80;;;;;;5043570;28;20036;-63
2021/08/16 12:02:29;;;;;;;6.65;3.05;;;26.20;55.70;;;;;;5039638;28;20065;-63
2021/08/16 12:04:56;;;;;;;8.38;3.72;;;26.20;56.20;;;;;;5047751;28;20374;-63
2021/08/16 12:07:24;;;;;;;4.78;2.60;;;26.20;55.10;;;;;;5043599;28;20134;-63
2021/08/16 12:09:51;;;;;;;4.72;2.78;;;26.20;54.80;;;;;;5043020;28;20028;-66
2021/08/16 12:12:24;;;;;;;5.88;2.72;;;26.20;54.80;;;;;;5054974;28;20044;-66
2021/08/16 12:15:00;;;;;;;5.53;2.15;;;26.30;54.70;;;;;;5047817;28;20032;-63
2021/08/16 12:17:26;;;;;;;3.53;2.28;;;26.40;54.90;;;;;;5051117;28;20086;-65
2021/08/16 12:20:12;;;;;;;7.38;2.67;;;26.50;54.20;;;;;;5040587;28;20024;-65
2021/08/16 12:22:53;;;;;;;4.47;2.45;;;26.60;54.10;;;;;;5043686;28;20064;-64
2021/08/16 12:25:20;;;;;;;6.75;3.00;;;26.70;53.80;;;;;;5041476;28;20029;-64
2021/08/16 12:28:00;;;;;;;5.88;3.08;;;26.70;53.60;;;;;;5024446;28;20044;-64
2021/08/16 12:30:34;;;;;;;7.82;2.28;;;26.70;53.60;;;;;;5049340;28;20032;-64
2021/08/16 12:33:11;;;;;;;3.33;2.20;;;26.70;53.20;;;;;;5036153;28;20099;-64
2021/08/16 12:35:37;;;;;;;2.92;2.00;;;26.70;52.70;;;;;;5041402;28;20363;-64
2021/08/16 12:38:05;;;;;;;4.20;2.13;;;26.70;52.80;;;;;;5050820;28;20037;-64
2021/08/16 12:40:31;;;;;;;5.68;2.05;;;26.80;52.80;;;;;;5041082;28;20051;-64
2021/08/16 12:43:03;;;;;;;3.30;2.10;;;26.80;53.20;;;;;;5046165;28;20082;-64
2021/08/16 12:45:29;;;;;;;6.45;2.30;;;26.80;53.80;;;;;;5046176;28;20025;-64